Time;durP1;ratioP1;P1;durP2;ratioP2;P2;SDS_P1;SDS_P2;PMS_P1;PMS_P2;Temp;Humidity;BMP_temperature;BMP_pressure;BME280_temperature;BME280_humidity;BME280_pressure;Samples;Min_cycle;Max_cycle;Signal;HPM_P1;HPM_P2
2022/10/03 00:02:27;;;;;;;15.40;2.50;;;;;;;;;;5032476;28;20491;-70
2022/10/03 00:05:12;;;;;;;19.90;2.58;;;;;;;;;;5039696;28;20041;-70
2022/10/03 00:07:48;;;;;;;18.55;2.33;;;;;;;;;;5046333;28;20048;-70
2022/10/03 00:10:28;;;;;;;18.58;2.60;;;;;;;;;;5046732;28;20037;-70
2022/10/03 00:13:27;;;;;;;25.45;2.88;;;;;;;;;;5042940;28;20060;-70
2022/10/03 00:16:05;;;;;;;15.07;2.67;;;;;;;;;;5021427;28;20052;-71
2022/10/03 00:18:46;;;;;;;17.02;2.33;;;;;;;;;;5046690;28;20045;-70
2022/10/03 00:21:31;;;;;;;14.80;3.00;;;;;;;;;;5035898;28;20041;-71
2022/10/03 00:24:15;;;;;;;21.70;3.15;;;;;;;;;;5051211;28;20407;-70
2022/10/03 00:27:02;;;;;;;16.05;2.97;;;;;;;;;;5052065;28;20494;-70
2022/10/03 00:29:32;;;;;;;13.85;2.40;;;;;;;;;;5042414;28;20111;-71
2022/10/03 00:32:10;;;;;;;15.57;2.40;;;;;;;;;;5043236;28;20053;-70
2022/10/03 00:34:40;;;;;;;12.43;2.30;;;;;;;;;;5042611;28;20052;-70
2022/10/03 00:37:16;;;;;;;18.38;2.53;;;;;;;;;;5045936;28;20045;-69
2022/10/03 00:39:45;;;;;;;13.93;2.30;;;;;;;;;;5044632;28;20136;-69
2022/10/03 00:42:31;;;;;;;22.27;2.63;;;;;;;;;;5026825;28;20535;-70
2022/10/03 00:45:08;;;;;;;14.50;2.33;;;;;;;;;;5047487;28;20111;-70
2022/10/03 00:47:51;;;;;;;20.65;2.72;;;;;;;;;;5047853;28;20057;-70
2022/10/03 00:50:20;;;;;;;21.17;2.30;;;;;;;;;;5053713;28;20037;-70
2022/10/03 00:53:05;;;;;;;18.17;2.38;;;;;;;;;;5054285;28;20407;-71
2022/10/03 00:55:45;;;;;;;13.27;2.42;;;;;;;;;;5053436;28;20049;-70
2022/10/03 00:58:15;;;;;;;13.25;2.10;;;;;;;;;;5035837;28;20052;-70
2022/10/03 01:00:45;;;;;;;15.68;2.15;;;;;;;;;;5053516;28;20041;-70
2022/10/03 01:03:20;;;;;;;19.00;2.63;;;;;;;;;;5047722;28;20049;-71
2022/10/03 01:05:57;;;;;;;20.08;2.63;;;;;;;;;;5048362;28;20047;-70
2022/10/03 01:08:31;;;;;;;16.80;2.28;;;;;;;;;;5049580;28;20056;-69
2022/10/03 01:10:57;;;;;;;19.27;2.60;;;;;;;;;;5033511;28;20441;-70
2022/10/03 01:13:50;;;;;;;17.67;2.03;;;;;;;;;;5051247;28;20037;-70
2022/10/03 01:16:36;;;;;;;17.45;2.67;;;;;;;;;;5024795;28;20521;-70
2022/10/03 01:19:21;;;;;;;18.63;2.33;;;;;;;;;;5051691;28;20049;-70
2022/10/03 01:21:55;;;;;;;19.63;2.45;;;;;;;;;;5053286;28;20076;-70
2022/10/03 01:24:53;;;;;;;20.02;2.80;;;;;;;;;;5053197;28;20040;-70
2022/10/03 01:30:34;;;;;;;12.60;2.60;;;;;;;;;;5051696;28;20049;-70
2022/10/03 01:33:13;;;;;;;16.33;2.72;;;;;;;;;;5051283;28;20045;-70
2022/10/03 01:35:52;;;;;;;16.83;2.28;;;;;;;;;;5052097;28;20376;-70
2022/10/03 01:38:28;;;;;;;12.55;2.10;;;;;;;;;;5052328;28;20048;-70
2022/10/03 01:41:14;;;;;;;20.08;2.50;;;;;;;;;;5052642;28;20041;-71
2022/10/03 01:43:47;;;;;;;13.45;2.40;;;;;;;;;;5052785;28;20605;-69
2022/10/03 01:46:16;;;;;;;14.35;2.38;;;;;;;;;;5051419;28;20429;-70
2022/10/03 01:48:42;;;;;;;19.95;3.13;;;;;;;;;;5046234;28;20405;-70
2022/10/03 01:51:18;;;;;;;13.55;2.13;;;;;;;;;;5051013;28;20102;-70
2022/10/03 01:53:56;;;;;;;17.25;2.42;;;;;;;;;;5037183;28;20036;-70
2022/10/03 01:56:38;;;;;;;20.05;2.70;;;;;;;;;;5049936;28;20102;-70
2022/10/03 01:59:04;;;;;;;15.52;2.53;;;;;;;;;;5052468;28;20499;-71
2022/10/03 02:01:48;;;;;;;17.35;2.40;;;;;;;;;;5051162;28;20056;-70
2022/10/03 02:04:26;;;;;;;14.88;2.78;;;;;;;;;;5036071;28;20391;-70
2022/10/03 02:07:02;;;;;;;17.33;2.40;;;;;;;;;;5062324;28;20044;-70
2022/10/03 02:09:33;;;;;;;13.23;2.40;;;;;;;;;;5055075;28;20255;-70
2022/10/03 02:12:02;;;;;;;16.15;2.40;;;;;;;;;;5052052;28;20462;-71
2022/10/03 02:14:51;;;;;;;14.98;2.22;;;;;;;;;;5050227;28;20468;-70
2022/10/03 02:17:36;;;;;;;18.48;2.10;;;;;;;;;;5039261;28;20076;-70
2022/10/03 02:20:12;;;;;;;16.80;2.33;;;;;;;;;;5032240;28;20140;-71
2022/10/03 02:22:47;;;;;;;16.70;2.33;;;;;;;;;;5045825;28;20045;-70
2022/10/03 02:25:30;;;;;;;14.27;2.20;;;;;;;;;;5063501;28;20045;-70
2022/10/03 02:28:05;;;;;;;18.38;2.97;;;;;;;;;;5049569;28;20036;-70
2022/10/03 02:30:51;;;;;;;16.40;2.70;;;;;;;;;;5044825;28;20048;-70
2022/10/03 02:33:17;;;;;;;16.95;2.20;;;;;;;;;;5051485;28;20156;-70
2022/10/03 02:35:46;;;;;;;15.88;2.20;;;;;;;;;;5051094;28;20123;-70
2022/10/03 02:38:17;;;;;;;14.32;2.22;;;;;;;;;;5050558;28;20041;-70
2022/10/03 02:40:54;;;;;;;14.38;2.58;;;;;;;;;;5034228;28;20068;-70
2022/10/03 02:43:49;;;;;;;21.20;2.70;;;;;;;;;;5033098;28;20065;-70
2022/10/03 02:46:15;;;;;;;18.50;2.30;;;;;;;;;;5042347;28;20041;-70
2022/10/03 02:49:00;;;;;;;15.23;2.50;;;;;;;;;;5048227;28;20128;-70
2022/10/03 02:51:45;;;;;;;15.55;2.33;;;;;;;;;;5051632;28;20060;-70
2022/10/03 02:54:30;;;;;;;20.20;2.38;;;;;;;;;;5051267;28;20399;-71
2022/10/03 02:57:16;;;;;;;19.00;2.50;;;;;;;;;;5050270;28;20455;-70
2022/10/03 02:59:57;;;;;;;20.08;2.17;;;;;;;;;;5051262;28;20529;-71
2022/10/03 03:02:42;;;;;;;18.15;2.30;;;;;;;;;;5051317;28;20489;-71
2022/10/03 03:05:27;;;;;;;19.05;2.30;;;;;;;;;;5050721;28;20495;-70
2022/10/03 03:07:59;;;;;;;16.13;2.92;;;;;;;;;;5050143;28;20047;-70
2022/10/03 03:10:32;;;;;;;15.82;2.72;;;;;;;;;;5049869;28;20040;-70
2022/10/03 03:13:13;;;;;;;11.45;1.95;;;;;;;;;;5049612;28;20494;-69
2022/10/03 03:15:58;;;;;;;18.27;2.40;;;;;;;;;;5049191;28;20066;-71
2022/10/03 03:18:24;;;;;;;20.40;2.65;;;;;;;;;;5051147;28;20049;-70
2022/10/03 03:20:51;;;;;;;18.08;2.67;;;;;;;;;;5052054;28;20049;-70
2022/10/03 03:23:43;;;;;;;13.65;2.30;;;;;;;;;;5048837;28;20061;-71
2022/10/03 03:26:09;;;;;;;14.52;1.90;;;;;;;;;;5033499;28;20049;-70
2022/10/03 03:28:38;;;;;;;13.38;2.05;;;;;;;;;;5051506;28;20083;-70
2022/10/03 03:31:09;;;;;;;13.60;2.35;;;;;;;;;;5047704;28;20118;-71
2022/10/03 03:33:53;;;;;;;13.33;2.60;;;;;;;;;;5045874;28;20124;-70
2022/10/03 03:36:27;;;;;;;15.38;1.90;;;;;;;;;;5044027;28;20303;-70
2022/10/03 03:39:11;;;;;;;20.98;2.50;;;;;;;;;;5051150;28;20040;-70
2022/10/03 03:41:56;;;;;;;17.05;2.00;;;;;;;;;;5028508;28;20049;-70
2022/10/03 03:44:41;;;;;;;17.25;2.63;;;;;;;;;;5044261;28;20437;-70
2022/10/03 03:47:18;;;;;;;15.73;1.95;;;;;;;;;;5045966;28;20128;-70
2022/10/03 03:49:59;;;;;;;17.17;2.38;;;;;;;;;;5049614;28;20044;-70
2022/10/03 03:52:37;;;;;;;17.63;2.15;;;;;;;;;;5051045;28;20364;-70
2022/10/03 03:55:06;;;;;;;16.27;2.10;;;;;;;;;;5053207;28;20049;-70
2022/10/03 03:57:47;;;;;;;21.27;2.47;;;;;;;;;;5051576;28;20078;-71
2022/10/03 04:00:14;;;;;;;;;;;;;;;;;;5035204;28;20041;-71
2022/10/03 04:02:58;;;;;;;14.90;2.40;;;;;;;;;;5044524;28;19927;-71
2022/10/03 04:05:43;;;;;;;17.05;2.17;;;;;;;;;;5052024;28;20045;-71
2022/10/03 04:08:23;;;;;;;15.85;2.25;;;;;;;;;;5052762;28;20510;-70
2022/10/03 04:11:08;;;;;;;21.35;2.08;;;;;;;;;;5066861;28;20045;-70
2022/10/03 04:13:35;;;;;;;14.80;2.63;;;;;;;;;;5052267;28;20052;-70
2022/10/03 04:16:09;;;;;;;16.83;1.92;;;;;;;;;;5052532;28;20077;-70
2022/10/03 04:18:59;;;;;;;12.90;2.25;;;;;;;;;;5048270;28;20033;-70
2022/10/03 04:21:26;;;;;;;16.40;2.67;;;;;;;;;;5052676;28;20041;-70
2022/10/03 04:24:11;;;;;;;16.92;2.35;;;;;;;;;;5052570;28;20045;-70
2022/10/03 04:26:52;;;;;;;12.15;2.22;;;;;;;;;;5051091;28;20123;-70
2022/10/03 04:29:24;;;;;;;20.00;2.40;;;;;;;;;;5054530;28;20055;-70
2022/10/03 04:32:17;;;;;;;14.93;2.28;;;;;;;;;;5053717;28;20052;-71
2022/10/03 04:34:56;;;;;;;15.43;2.08;;;;;;;;;;5045200;28;20049;-70
2022/10/03 04:37:23;;;;;;;15.55;2.00;;;;;;;;;;5053420;28;20143;-70
2022/10/03 04:39:55;;;;;;;17.10;2.20;;;;;;;;;;5051201;28;20474;-70
2022/10/03 04:42:40;;;;;;;17.95;2.15;;;;;;;;;;5053300;28;20798;-71
2022/10/03 04:45:25;;;;;;;15.73;2.15;;;;;;;;;;5052542;28;20033;-70
2022/10/03 04:47:52;;;;;;;10.57;1.67;;;;;;;;;;5047151;28;20068;-70
2022/10/03 04:50:24;;;;;;;16.25;2.75;;;;;;;;;;5050495;28;20048;-70
2022/10/03 04:52:58;;;;;;;15.38;2.03;;;;;;;;;;5052990;28;20041;-70
2022/10/03 04:55:34;;;;;;;14.57;2.10;;;;;;;;;;5051446;28;20076;-70
2022/10/03 04:58:06;;;;;;;17.63;2.25;;;;;;;;;;5052049;28;20041;-70
2022/10/03 05:00:40;;;;;;;15.98;2.40;;;;;;;;;;5064322;28;20048;-70
2022/10/03 05:03:06;;;;;;;12.70;1.85;;;;;;;;;;5053421;28;20041;-70
2022/10/03 05:05:39;;;;;;;12.57;2.20;;;;;;;;;;5031627;28;20045;-70
2022/10/03 05:08:11;;;;;;;13.65;2.00;;;;;;;;;;5048795;28;20084;-70
2022/10/03 05:10:56;;;;;;;14.48;2.13;;;;;;;;;;5051617;28;20041;-70
2022/10/03 05:13:46;;;;;;;11.25;1.73;;;;;;;;;;5053006;28;20430;-70
2022/10/03 05:16:14;;;;;;;13.10;1.80;;;;;;;;;;5052309;28;20521;-69
2022/10/03 05:18:59;;;;;;;11.93;1.63;;;;;;;;;;5034342;28;20068;-70
2022/10/03 05:21:44;;;;;;;14.18;2.28;;;;;;;;;;5049751;28;20045;-69
2022/10/03 05:24:17;;;;;;;17.25;2.38;;;;;;;;;;5048927;28;20076;-70
2022/10/03 05:26:49;;;;;;;11.52;1.73;;;;;;;;;;5034012;28;20114;-70
2022/10/03 05:29:30;;;;;;;14.25;1.90;;;;;;;;;;5048800;28;20136;-70
2022/10/03 05:32:15;;;;;;;14.13;2.45;;;;;;;;;;5049436;28;20056;-70
2022/10/03 05:34:59;;;;;;;18.60;2.35;;;;;;;;;;5043634;28;20079;-69
2022/10/03 05:37:44;;;;;;;14.10;2.00;;;;;;;;;;5042921;28;20045;-70
2022/10/03 05:40:26;;;;;;;15.98;2.03;;;;;;;;;;5040071;28;20046;-70
2022/10/03 05:42:52;;;;;;;12.68;2.25;;;;;;;;;;5049140;28;20037;-70
2022/10/03 05:45:29;;;;;;;10.77;1.98;;;;;;;;;;5049902;28;20047;-70
2022/10/03 05:48:15;;;;;;;12.35;2.00;;;;;;;;;;5058827;28;20044;-70
2022/10/03 05:50:57;;;;;;;11.90;1.80;;;;;;;;;;5016723;28;20053;-70
2022/10/03 05:53:26;;;;;;;16.23;2.35;;;;;;;;;;5055384;28;20054;-70
2022/10/03 05:56:01;;;;;;;13.45;2.15;;;;;;;;;;5045180;28;20379;-71
2022/10/03 05:58:39;;;;;;;15.43;2.40;;;;;;;;;;5046568;28;20029;-70
2022/10/03 06:01:33;;;;;;;12.13;2.03;;;;;;;;;;5050782;28;20052;-69
2022/10/03 06:04:38;;;;;;;11.68;2.03;;;;;;;;;;5030394;28;20118;-69
2022/10/03 06:07:14;;;;;;;15.05;2.67;;;;;;;;;;5029769;28;20045;-70
2022/10/03 06:10:01;;;;;;;10.65;1.70;;;;;;;;;;5029639;28;20518;-70
2022/10/03 06:12:39;;;;;;;14.52;1.80;;;;;;;;;;5012735;28;20049;-71
2022/10/03 06:15:07;;;;;;;17.45;2.53;;;;;;;;;;5022636;28;20057;-70
2022/10/03 06:17:48;;;;;;;17.02;2.30;;;;;;;;;;5023340;28;20399;-70
2022/10/03 06:20:26;;;;;;;12.00;2.05;;;;;;;;;;5028200;28;20045;-70
2022/10/03 06:23:10;;;;;;;11.50;1.60;;;;;;;;;;5024874;28;20045;-70
2022/10/03 06:25:51;;;;;;;10.50;1.92;;;;;;;;;;5028688;28;20982;-70
2022/10/03 06:28:30;;;;;;;17.95;2.30;;;;;;;;;;5028847;28;20041;-69
2022/10/03 06:31:20;;;;;;;18.83;2.35;;;;;;;;;;5028287;28;20437;-70
2022/10/03 06:34:15;;;;;;;10.23;1.98;;;;;;;;;;5026547;28;20132;-70
2022/10/03 06:36:44;;;;;;;17.45;2.00;;;;;;;;;;5020298;28;20457;-70
2022/10/03 06:39:19;;;;;;;16.17;2.33;;;;;;;;;;5037092;28;20064;-69
2022/10/03 06:41:53;;;;;;;19.50;2.40;;;;;;;;;;5038510;28;20086;-70
2022/10/03 06:44:30;;;;;;;12.98;2.22;;;;;;;;;;5040108;28;20045;-70
2022/10/03 06:47:14;;;;;;;13.27;2.22;;;;;;;;;;5048807;28;20112;-70
2022/10/03 06:49:49;;;;;;;14.60;2.05;;;;;;;;;;5049747;28;20155;-70
2022/10/03 06:52:35;;;;;;;13.68;2.25;;;;;;;;;;5038003;28;20124;-70
2022/10/03 06:55:07;;;;;;;14.48;1.80;;;;;;;;;;5049313;28;20049;-70
2022/10/03 06:58:06;;;;;;;12.20;1.83;;;;;;;;;;5050075;28;20045;-70
2022/10/03 07:00:42;;;;;;;16.80;2.20;;;;;;;;;;4997804;28;20140;-71
2022/10/03 07:03:08;;;;;;;13.50;1.90;;;;;;;;;;5004989;28;20132;-70
2022/10/03 07:05:43;;;;;;;10.02;1.88;;;;;;;;;;5008827;28;20412;-70
2022/10/03 07:08:25;;;;;;;14.48;1.98;;;;;;;;;;5007474;28;20037;-70
2022/10/03 07:10:55;;;;;;;9.43;1.55;;;;;;;;;;5004655;28;20046;-70
2022/10/03 07:13:26;;;;;;;13.57;1.75;;;;;;;;;;5006240;28;20049;-70
2022/10/03 07:16:10;;;;;;;9.65;1.92;;;;;;;;;;5006596;28;20054;-71
2022/10/03 07:19:02;;;;;;;11.75;1.92;;;;;;;;;;5008029;28;20054;-71
2022/10/03 07:21:40;;;;;;;13.10;1.67;;;;;;;;;;5002386;28;20054;-71
2022/10/03 07:24:24;;;;;;;11.98;1.60;;;;;;;;;;5009772;28;20500;-70
2022/10/03 07:27:00;;;;;;;11.35;2.05;;;;;;;;;;5009695;28;20045;-71
2022/10/03 07:29:28;;;;;;;11.38;2.00;;;;;;;;;;5014020;28;20160;-71
2022/10/03 07:32:07;;;;;;;10.05;1.77;;;;;;;;;;5013947;28;20125;-70
2022/10/03 07:34:33;;;;;;;11.60;2.05;;;;;;;;;;5029731;28;20124;-70
2022/10/03 07:40:05;;;;;;;11.27;1.83;;;;;;;;;;5054987;28;20045;-71
2022/10/03 07:42:35;;;;;;;10.32;2.08;;;;;;;;;;5050741;28;20057;-71
2022/10/03 07:45:01;;;;;;;9.82;1.95;;;;;;;;;;5042718;28;20049;-71
2022/10/03 07:47:40;;;;;;;8.85;1.45;;;;;;;;;;5055126;28;20116;-71
2022/10/03 07:50:25;;;;;;;9.70;1.73;;;;;;;;;;5044955;28;20441;-71
2022/10/03 07:52:58;;;;;;;13.77;2.08;;;;;;;;;;5055531;28;20070;-70
2022/10/03 07:55:29;;;;;;;14.18;2.30;;;;;;;;;;5055552;28;20041;-71
2022/10/03 07:57:59;;;;;;;12.77;1.60;;;;;;;;;;5055394;28;20041;-71
2022/10/03 08:00:34;;;;;;;8.52;1.50;;;;;;;;;;5055603;28;20053;-70
2022/10/03 08:03:15;;;;;;;10.55;1.70;;;;;;;;;;5052466;28;20054;-69
2022/10/03 08:05:42;;;;;;;;;;;;;;;;;;5054782;28;20437;-70
2022/10/03 08:08:18;;;;;;;11.15;2.03;;;;;;;;;;5047440;28;19967;-70
2022/10/03 08:11:07;;;;;;;11.07;2.30;;;;;;;;;;5046642;28;20352;-71
2022/10/03 08:13:37;;;;;;;12.15;1.50;;;;;;;;;;5052861;28;20028;-70
2022/10/03 08:16:06;;;;;;;11.27;1.90;;;;;;;;;;5039556;28;20084;-69
2022/10/03 08:18:35;;;;;;;9.57;1.70;;;;;;;;;;5054652;28;20037;-69
2022/10/03 08:21:02;;;;;;;11.43;2.08;;;;;;;;;;5054312;28;20079;-70
2022/10/03 08:23:47;;;;;;;12.00;2.15;;;;;;;;;;5052643;28;20064;-70
2022/10/03 08:26:22;;;;;;;10.60;1.60;;;;;;;;;;5042237;28;20068;-69
2022/10/03 08:29:07;;;;;;;10.32;1.65;;;;;;;;;;5054662;28;20084;-70
2022/10/03 08:32:00;;;;;;;11.38;1.65;;;;;;;;;;5048899;28;20045;-69
2022/10/03 08:34:45;;;;;;;12.07;1.58;;;;;;;;;;4994760;28;20049;-69
2022/10/03 08:37:34;;;;;;;10.13;1.70;;;;;;;;;;5054332;28;20037;-69
2022/10/03 08:40:10;;;;;;;10.75;1.70;;;;;;;;;;5052786;28;20036;-70
2022/10/03 08:42:48;;;;;;;12.73;1.88;;;;;;;;;;5052026;28;20056;-70
2022/10/03 08:45:32;;;;;;;11.27;1.92;;;;;;;;;;5052816;28;20486;-70
2022/10/03 08:48:14;;;;;;;11.07;1.90;;;;;;;;;;5052104;28;20049;-69
2022/10/03 08:50:40;;;;;;;11.45;1.52;;;;;;;;;;5042120;28;20390;-69
2022/10/03 08:53:27;;;;;;;12.10;1.65;;;;;;;;;;5051591;28;20067;-70
2022/10/03 08:56:06;;;;;;;12.85;1.90;;;;;;;;;;5054302;28;20094;-69
2022/10/03 08:58:54;;;;;;;11.18;1.73;;;;;;;;;;5034326;28;20057;-69
2022/10/03 09:01:20;;;;;;;12.65;1.50;;;;;;;;;;5037030;28;20041;-70
2022/10/03 09:03:55;;;;;;;11.05;1.65;;;;;;;;;;5044201;28;20053;-70
2022/10/03 09:06:32;;;;;;;10.32;1.35;;;;;;;;;;5049293;28;20048;-70
2022/10/03 09:09:15;;;;;;;11.50;1.55;;;;;;;;;;5053462;28;20120;-69
2022/10/03 09:12:00;;;;;;;10.48;1.65;;;;;;;;;;5049454;28;21842;-70
2022/10/03 09:14:44;;;;;;;10.35;1.45;;;;;;;;;;5053099;28;20057;-70
2022/10/03 09:17:22;;;;;;;13.15;1.98;;;;;;;;;;5054193;28;20123;-69
2022/10/03 09:20:04;;;;;;;9.45;1.30;;;;;;;;;;5035879;28;20059;-71
2022/10/03 09:22:44;;;;;;;11.23;1.50;;;;;;;;;;5053043;28;20061;-70
2022/10/03 09:25:19;;;;;;;7.90;1.30;;;;;;;;;;5053106;28;20048;-70
2022/10/03 09:28:04;;;;;;;11.20;1.60;;;;;;;;;;5056365;28;20048;-70
2022/10/03 09:30:48;;;;;;;12.18;1.55;;;;;;;;;;5052817;28;20131;-70
2022/10/03 09:33:23;;;;;;;12.10;1.77;;;;;;;;;;5053013;28;20063;-70
2022/10/03 09:36:03;;;;;;;11.20;1.60;;;;;;;;;;5026942;28;20438;-70
2022/10/03 09:38:38;;;;;;;14.02;2.13;;;;;;;;;;5049782;28;20055;-70
2022/10/03 09:41:10;;;;;;;9.60;1.38;;;;;;;;;;5047888;28;20165;-70
2022/10/03 09:43:36;;;;;;;8.60;1.55;;;;;;;;;;5033416;28;20057;-70
2022/10/03 09:46:02;;;;;;;10.00;1.30;;;;;;;;;;5051187;28;20057;-69
2022/10/03 09:48:43;;;;;;;8.95;1.27;;;;;;;;;;5033520;28;20040;-69
2022/10/03 09:51:22;;;;;;;10.25;1.80;;;;;;;;;;5031564;28;20202;-71
2022/10/03 09:54:07;;;;;;;10.05;1.40;;;;;;;;;;5033324;28;20060;-71
2022/10/03 09:56:39;;;;;;;11.63;1.70;;;;;;;;;;5033219;28;20041;-71
2022/10/03 09:59:20;;;;;;;9.23;1.27;;;;;;;;;;5046512;28;20059;-70
2022/10/03 10:01:51;;;;;;;10.77;1.40;;;;;;;;;;5052208;28;20041;-71
2022/10/03 10:04:37;;;;;;;11.02;1.65;;;;;;;;;;5053228;28;20037;-70
2022/10/03 10:07:18;;;;;;;11.32;1.50;;;;;;;;;;5043972;28;20106;-70
2022/10/03 10:09:44;;;;;;;;;;;;;;;;;;5053204;28;20041;-69
2022/10/03 10:12:13;;;;;;;6.63;1.10;;;;;;;;;;5034851;28;19974;-71
2022/10/03 10:14:58;;;;;;;9.63;1.67;;;;;;;;;;5056065;28;20495;-68
2022/10/03 10:17:44;;;;;;;9.75;1.38;;;;;;;;;;5033207;28;20044;-69
2022/10/03 10:20:43;;;;;;;11.68;1.48;;;;;;;;;;5049772;28;20079;-70
2022/10/03 10:23:17;;;;;;;9.73;1.45;;;;;;;;;;4968979;28;20051;-70
2022/10/03 10:26:02;;;;;;;10.15;1.70;;;;;;;;;;4970359;28;20074;-70
2022/10/03 10:28:43;;;;;;;9.27;1.25;;;;;;;;;;4971674;28;20070;-70
2022/10/03 10:31:24;;;;;;;11.25;1.60;;;;;;;;;;4971606;28;20062;-70
2022/10/03 10:34:08;;;;;;;14.30;1.40;;;;;;;;;;4971655;28;20134;-70
2022/10/03 10:36:53;;;;;;;9.25;1.35;;;;;;;;;;4967366;28;20117;-69
2022/10/03 10:39:38;;;;;;;11.77;1.67;;;;;;;;;;4970472;28;20105;-70
2022/10/03 10:42:04;;;;;;;10.52;1.58;;;;;;;;;;4969156;28;20054;-70
2022/10/03 10:44:36;;;;;;;6.45;1.08;;;;;;;;;;4971634;28;20051;-70
2022/10/03 10:47:05;;;;;;;8.88;1.02;;;;;;;;;;4971159;28;20050;-70
2022/10/03 10:49:49;;;;;;;8.65;1.27;;;;;;;;;;4952916;28;20500;-69
2022/10/03 10:52:33;;;;;;;8.57;1.35;;;;;;;;;;4964593;28;20095;-69
2022/10/03 10:55:05;;;;;;;11.40;1.38;;;;;;;;;;4956050;28;20425;-69
2022/10/03 10:57:31;;;;;;;12.05;1.40;;;;;;;;;;4970774;28;20073;-69
2022/10/03 11:00:10;;;;;;;11.25;1.83;;;;;;;;;;5031909;28;20041;-70
2022/10/03 11:03:11;;;;;;;7.90;1.10;;;;;;;;;;5031552;28;20491;-69
2022/10/03 11:05:56;;;;;;;7.40;1.25;;;;;;;;;;5047622;28;20067;-69
2022/10/03 11:08:31;;;;;;;8.15;1.15;;;;;;;;;;5039747;28;20053;-69
2022/10/03 11:11:12;;;;;;;6.85;1.15;;;;;;;;;;5051948;28;20056;-69
2022/10/03 11:13:39;;;;;;;;;;;;;;;;;;5051475;28;20037;-69
2022/10/03 11:16:20;;;;;;;9.27;1.30;;;;;;;;;;5051846;28;20298;-70
2022/10/03 11:19:04;;;;;;;6.43;1.17;;;;;;;;;;5051526;28;20435;-69
2022/10/03 11:22:06;;;;;;;6.53;1.42;;;;;;;;;;5047258;28;20053;-69
2022/10/03 11:24:32;;;;;;;;;;;;;;;;;;5008515;28;20090;-69
2022/10/03 11:27:06;;;;;;;6.85;1.17;;;;;;;;;;5025557;28;19972;-69
2022/10/03 11:29:51;;;;;;;7.95;1.30;;;;;;;;;;5029197;28;20559;-70
2022/10/03 11:32:41;;;;;;;7.53;1.48;;;;;;;;;;5029545;28;20511;-69
2022/10/03 11:35:20;;;;;;;8.50;1.65;;;;;;;;;;5029551;28;20053;-69
2022/10/03 11:37:57;;;;;;;6.90;1.30;;;;;;;;;;5021519;28;20046;-69
2022/10/03 11:40:35;;;;;;;8.93;1.00;;;;;;;;;;5009732;28;20045;-69
2022/10/03 11:43:03;;;;;;;8.30;1.45;;;;;;;;;;5009795;28;20054;-69
2022/10/03 11:45:32;;;;;;;7.65;1.30;;;;;;;;;;4993475;28;20064;-69
2022/10/03 11:48:19;;;;;;;6.53;1.20;;;;;;;;;;5009751;28;20125;-69
2022/10/03 11:50:50;;;;;;;7.05;1.30;;;;;;;;;;5009656;28;20534;-69
2022/10/03 11:53:36;;;;;;;8.47;1.30;;;;;;;;;;5009204;28;20582;-69
2022/10/03 11:56:13;;;;;;;8.07;1.20;;;;;;;;;;4998839;28;20133;-69
2022/10/03 11:58:55;;;;;;;8.32;1.20;;;;;;;;;;5033428;28;20570;-70
2022/10/03 12:01:24;;;;;;;8.07;1.20;;;;;;;;;;5051519;28;20051;-69
2022/10/03 12:03:56;;;;;;;7.63;1.10;;;;;;;;;;5051063;28;20040;-69
2022/10/03 12:09:13;;;;;;;6.57;1.27;;;;;;;;;;5031390;28;20411;-69
2022/10/03 12:11:55;;;;;;;8.20;1.38;;;;;;;;;;5031424;28;20072;-69
2022/10/03 12:14:28;;;;;;;8.05;1.27;;;;;;;;;;5031826;28;20056;-69
2022/10/03 12:17:02;;;;;;;8.70;1.50;;;;;;;;;;5038169;28;20057;-69
2022/10/03 12:19:35;;;;;;;7.40;1.10;;;;;;;;;;5033798;28;20375;-70
2022/10/03 12:22:01;;;;;;;5.72;0.95;;;;;;;;;;5056520;28;20095;-69
2022/10/03 12:24:28;;;;;;;4.95;1.10;;;;;;;;;;5043492;28;20042;-69
2022/10/03 12:26:58;;;;;;;9.82;1.40;;;;;;;;;;5034572;28;20053;-68
2022/10/03 12:29:26;;;;;;;9.52;1.45;;;;;;;;;;5046131;28;20057;-68
2022/10/03 12:31:59;;;;;;;7.05;1.30;;;;;;;;;;5051808;28;20418;-69
2022/10/03 12:34:36;;;;;;;8.13;1.40;;;;;;;;;;5038555;28;20484;-69
2022/10/03 12:37:05;;;;;;;7.65;1.23;;;;;;;;;;5034615;28;20053;-68
2022/10/03 12:39:39;;;;;;;8.20;1.17;;;;;;;;;;5045945;28;20383;-69
2022/10/03 12:42:21;;;;;;;6.78;0.90;;;;;;;;;;5046869;28;20455;-69
2022/10/03 12:44:59;;;;;;;8.52;1.10;;;;;;;;;;5034392;28;20053;-69
2022/10/03 12:47:44;;;;;;;9.20;1.23;;;;;;;;;;5053749;28;20140;-69
2022/10/03 12:50:21;;;;;;;15.25;1.60;;;;;;;;;;5036273;28;20049;-69
2022/10/03 12:53:04;;;;;;;7.15;1.20;;;;;;;;;;5052598;28;20041;-69
2022/10/03 12:55:36;;;;;;;13.38;1.60;;;;;;;;;;5054246;28;20049;-69
2022/10/03 12:58:23;;;;;;;9.40;1.83;;;;;;;;;;5055042;28;20044;-69
2022/10/03 13:00:57;;;;;;;9.80;1.80;;;;;;;;;;5054299;28;20445;-68
2022/10/03 13:03:24;;;;;;;7.80;1.20;;;;;;;;;;5054816;28;20048;-70
2022/10/03 13:06:06;;;;;;;11.18;1.30;;;;;;;;;;5033957;28;20061;-70
2022/10/03 13:08:32;;;;;;;;;;;;;;;;;;5038507;28;20098;-68
2022/10/03 13:11:13;;;;;;;9.95;1.35;;;;;;;;;;5055839;28;19964;-69
2022/10/03 13:13:54;;;;;;;6.07;0.90;;;;;;;;;;5061949;28;20048;-69
2022/10/03 13:16:28;;;;;;;6.88;1.20;;;;;;;;;;5058116;28;20048;-69
2022/10/03 13:19:00;;;;;;;4.10;0.88;;;;;;;;;;5049614;28;20049;-69
2022/10/03 13:21:29;;;;;;;7.90;1.13;;;;;;;;;;5036031;28;20114;-71
2022/10/03 13:24:08;;;;;;;8.48;1.20;;;;;;;;;;5045103;28;20135;-68
2022/10/03 13:26:41;;;;;;;10.20;1.20;;;;;;;;;;5050205;28;20450;-69
2022/10/03 13:29:11;;;;;;;7.80;1.10;;;;;;;;;;5049871;28;20060;-69
2022/10/03 13:31:44;;;;;;;6.53;1.13;;;;;;;;;;5044610;28;20090;-69
2022/10/03 13:34:17;;;;;;;6.38;1.30;;;;;;;;;;5060725;28;20523;-68
2022/10/03 13:36:45;;;;;;;7.95;1.17;;;;;;;;;;5048831;28;20186;-69
2022/10/03 13:39:24;;;;;;;6.63;1.20;;;;;;;;;;5048302;28;20037;-69
2022/10/03 13:41:54;;;;;;;5.72;1.00;;;;;;;;;;5043226;28;20499;-69
2022/10/03 13:44:41;;;;;;;6.88;1.05;;;;;;;;;;5047321;28;20052;-69
2022/10/03 13:47:18;;;;;;;5.80;1.10;;;;;;;;;;5068285;28;20128;-69
2022/10/03 13:50:03;;;;;;;6.22;1.10;;;;;;;;;;5058069;28;20059;-69
2022/10/03 13:52:59;;;;;;;5.90;1.10;;;;;;;;;;5052012;28;20045;-69
2022/10/03 13:55:41;;;;;;;6.75;1.17;;;;;;;;;;4991050;28;20576;-70
2022/10/03 13:58:13;;;;;;;6.20;1.10;;;;;;;;;;4961132;28;20073;-69
2022/10/03 14:00:58;;;;;;;8.18;1.30;;;;;;;;;;4971869;28;20077;-69
2022/10/03 14:03:26;;;;;;;6.63;1.15;;;;;;;;;;4987507;28;20060;-70
2022/10/03 14:05:59;;;;;;;7.30;1.10;;;;;;;;;;4973045;28;20074;-69
2022/10/03 14:08:35;;;;;;;6.72;1.15;;;;;;;;;;4991560;28;20397;-69
2022/10/03 14:11:13;;;;;;;7.57;1.25;;;;;;;;;;4990418;28;20132;-69
2022/10/03 14:13:48;;;;;;;5.93;0.98;;;;;;;;;;4991542;28;20058;-69
2022/10/03 14:16:23;;;;;;;7.43;1.17;;;;;;;;;;4991430;28;20062;-70
2022/10/03 14:18:56;;;;;;;7.40;1.02;;;;;;;;;;4987069;28;20059;-68
2022/10/03 14:21:25;;;;;;;5.78;1.15;;;;;;;;;;4989114;28;20144;-70
2022/10/03 14:24:14;;;;;;;5.13;1.08;;;;;;;;;;4974962;28;20449;-69
2022/10/03 14:26:57;;;;;;;5.63;1.20;;;;;;;;;;4990365;28;20050;-68
2022/10/03 14:29:32;;;;;;;6.22;1.23;;;;;;;;;;4990188;28;20046;-69
2022/10/03 14:32:03;;;;;;;7.82;1.10;;;;;;;;;;5025608;28;20418;-69
2022/10/03 14:34:42;;;;;;;8.05;1.05;;;;;;;;;;5049045;28;20041;-70
2022/10/03 14:37:46;;;;;;;7.68;1.30;;;;;;;;;;5063010;28;20056;-70
2022/10/03 14:40:16;;;;;;;7.90;1.10;;;;;;;;;;4978206;28;20050;-69
2022/10/03 14:42:49;;;;;;;7.18;1.30;;;;;;;;;;4991243;28;20163;-70
2022/10/03 14:45:18;;;;;;;8.18;1.40;;;;;;;;;;4989346;28;20054;-69
2022/10/03 14:47:52;;;;;;;4.90;1.20;;;;;;;;;;4990489;28;20065;-70
2022/10/03 14:50:20;;;;;;;7.93;1.17;;;;;;;;;;5002082;28;20050;-70
2022/10/03 14:52:46;;;;;;;9.20;1.27;;;;;;;;;;4990913;28;20504;-69
2022/10/03 14:55:24;;;;;;;8.55;1.33;;;;;;;;;;4990633;28;20043;-69
2022/10/03 14:58:13;;;;;;;7.00;1.20;;;;;;;;;;4989886;28;20069;-69
2022/10/03 15:00:42;;;;;;;7.00;1.27;;;;;;;;;;4962392;28;20075;-71
2022/10/03 15:03:18;;;;;;;9.02;1.33;;;;;;;;;;4951722;29;20051;-70
2022/10/03 15:05:56;;;;;;;7.32;1.13;;;;;;;;;;4949477;28;20613;-70
2022/10/03 15:08:23;;;;;;;8.68;1.33;;;;;;;;;;4951452;29;20070;-70
2022/10/03 15:10:51;;;;;;;9.35;1.38;;;;;;;;;;4961963;28;20080;-70
2022/10/03 15:13:18;;;;;;;7.95;1.38;;;;;;;;;;5029516;28;20518;-71
2022/10/03 15:15:46;;;;;;;9.93;1.20;;;;;;;;;;5026982;28;20045;-71
2022/10/03 15:18:17;;;;;;;8.57;1.38;;;;;;;;;;5009551;28;20064;-70
2022/10/03 15:20:44;;;;;;;11.00;1.55;;;;;;;;;;5009598;28;20061;-70
2022/10/03 15:23:19;;;;;;;6.15;1.25;;;;;;;;;;5018338;28;20450;-70
2022/10/03 15:25:51;;;;;;;7.28;1.27;;;;;;;;;;5010632;28;20191;-71
2022/10/03 15:28:29;;;;;;;7.75;1.30;;;;;;;;;;5012044;28;20100;-70
2022/10/03 15:31:07;;;;;;;8.98;1.30;;;;;;;;;;5022556;28;20111;-70
2022/10/03 15:33:34;;;;;;;6.90;1.48;;;;;;;;;;5029552;28;20533;-71
2022/10/03 15:36:06;;;;;;;7.45;1.40;;;;;;;;;;5015664;28;20041;-68
2022/10/03 15:38:36;;;;;;;6.55;1.27;;;;;;;;;;5028037;28;20053;-68
2022/10/03 15:41:12;;;;;;;7.10;1.23;;;;;;;;;;5051029;28;20120;-68
2022/10/03 15:43:38;;;;;;;8.73;1.33;;;;;;;;;;5035144;28;20099;-68
2022/10/03 15:46:12;;;;;;;5.93;1.00;;;;;;;;;;5045988;28;20036;-68